createdAt,value
2018-08-17T00:02:40.307Z,60.00
2018-08-17T00:06:43.659Z,60.80
2018-08-17T00:10:47.013Z,61.10
2018-08-17T00:14:50.388Z,62.00
2018-08-17T00:18:53.739Z,61.60
2018-08-17T00:22:57.092Z,60.10
2018-08-17T00:27:00.435Z,60.40
2018-08-17T00:31:03.797Z,60.00
2018-08-17T00:35:07.156Z,61.80
2018-08-17T00:39:11.291Z,62.60
2018-08-17T00:47:24.316Z,63.30
2018-08-17T00:51:27.735Z,61.30
2018-08-17T00:55:31.176Z,62.90
2018-08-17T00:59:34.508Z,61.80
2018-08-17T01:03:38.715Z,60.60
2018-08-17T01:07:42.291Z,61.00
2018-08-17T01:11:45.630Z,62.10
2018-08-17T01:15:48.980Z,64.80
2018-08-17T01:23:55.417Z,63.60
2018-08-17T01:27:58.771Z,64.00
2018-08-17T01:32:02.149Z,63.10
2018-08-17T01:36:05.831Z,64.40
2018-08-17T01:40:09.183Z,61.80
2018-08-17T01:44:12.516Z,65.30
2018-08-17T01:48:15.865Z,60.50
2018-08-17T01:52:19.239Z,62.90
2018-08-17T01:56:22.580Z,62.00
2018-08-17T02:00:26.015Z,62.20
2018-08-17T02:04:29.383Z,60.70
2018-08-17T02:08:32.775Z,61.20
2018-08-17T02:12:36.259Z,64.00
2018-08-17T02:16:40.880Z,61.60
2018-08-17T02:20:44.210Z,63.60
2018-08-17T02:24:47.661Z,62.90
2018-08-17T02:28:51.015Z,64.10
2018-08-17T02:32:54.325Z,61.70
2018-08-17T02:36:57.778Z,63.70
2018-08-17T02:41:01.189Z,64.20
2018-08-17T02:45:05.385Z,62.70
2018-08-17T02:49:08.724Z,62.10
2018-08-17T02:53:12.049Z,63.60
2018-08-17T02:57:15.387Z,64.40
2018-08-17T03:01:18.744Z,63.20
2018-08-17T03:05:22.107Z,63.40
2018-08-17T03:09:25.460Z,65.50
2018-08-17T03:13:28.784Z,64.80
2018-08-17T03:17:32.122Z,63.40
2018-08-17T03:21:35.569Z,63.50
2018-08-17T03:25:39.282Z,63.90
2018-08-17T03:29:42.638Z,63.40
2018-08-17T03:33:46.026Z,65.20
2018-08-17T03:37:49.394Z,68.30
2018-08-17T03:41:52.731Z,64.70
2018-08-17T03:45:56.078Z,65.10
2018-08-17T03:49:59.427Z,63.90
2018-08-17T03:54:02.761Z,65.20
2018-08-17T03:58:06.122Z,64.60
2018-08-17T04:02:09.485Z,64.90
2018-08-17T04:06:13.039Z,65.70
2018-08-17T04:10:16.383Z,68.70
2018-08-17T04:14:19.721Z,65.00
2018-08-17T04:18:23.062Z,64.50
2018-08-17T04:22:26.392Z,69.30
2018-08-17T04:26:29.739Z,66.00
2018-08-17T04:30:33.146Z,65.30
2018-08-17T04:34:36.467Z,64.90
2018-08-17T04:38:39.847Z,66.80
2018-08-17T04:42:43.211Z,65.40
2018-08-17T04:46:46.528Z,64.10
2018-08-17T04:50:49.941Z,64.80
2018-08-17T04:54:53.270Z,65.70
2018-08-17T04:58:56.600Z,66.60
2018-08-17T05:02:59.946Z,65.30
2018-08-17T05:07:03.309Z,65.80
2018-08-17T05:11:06.680Z,65.80
2018-08-17T05:15:10.743Z,64.60
2018-08-17T05:19:14.075Z,65.40
2018-08-17T05:23:17.455Z,66.20
2018-08-17T05:27:20.784Z,67.40
2018-08-17T05:31:24.133Z,66.30
2018-08-17T05:35:27.468Z,67.70
2018-08-17T05:39:30.821Z,65.50
2018-08-17T05:43:34.212Z,65.80
2018-08-17T05:47:37.704Z,65.30
2018-08-17T05:51:41.063Z,65.40
2018-08-17T05:55:44.447Z,65.30
2018-08-17T05:59:47.774Z,65.30
2018-08-17T06:03:51.122Z,66.20
2018-08-17T06:07:54.479Z,64.50
2018-08-17T06:11:57.796Z,66.50
2018-08-17T06:16:01.246Z,66.20
2018-08-17T06:20:05.703Z,66.10
2018-08-17T06:24:09.031Z,67.60
2018-08-17T06:28:12.384Z,67.20
2018-08-17T06:32:15.816Z,66.30
2018-08-17T06:36:19.151Z,67.20
2018-08-17T06:40:22.519Z,64.50
2018-08-17T06:44:25.944Z,68.30
2018-08-17T06:48:29.297Z,66.40
2018-08-17T06:52:32.701Z,69.10
2018-08-17T06:56:36.042Z,66.90
2018-08-17T07:00:39.407Z,65.50
2018-08-17T07:04:42.796Z,64.80
2018-08-17T07:08:46.233Z,66.40
2018-08-17T07:12:49.627Z,67.20
2018-08-17T07:16:52.999Z,65.60
2018-08-17T07:20:56.358Z,65.90
2018-08-17T07:24:59.722Z,65.90
2018-08-17T07:29:03.096Z,65.00
2018-08-17T07:33:06.446Z,65.00
2018-08-17T07:37:09.808Z,63.80
2018-08-17T07:41:13.355Z,66.70
2018-08-17T07:45:16.717Z,64.50
2018-08-17T08:58:23.434Z,63.80
2018-08-17T09:02:26.759Z,64.20
2018-08-17T09:06:30.143Z,64.30
2018-08-17T09:10:33.471Z,63.80
2018-08-17T09:14:36.808Z,64.00
2018-08-17T09:18:40.163Z,63.60
2018-08-17T09:22:43.638Z,64.10
2018-08-17T09:26:46.968Z,64.60
2018-08-17T09:30:50.295Z,63.60
2018-08-17T09:34:53.658Z,64.10
2018-08-17T09:38:57.179Z,63.90
2018-08-17T09:43:00.507Z,64.30
2018-08-17T09:47:03.882Z,64.10
2018-08-17T09:51:07.223Z,63.70
2018-08-17T09:55:10.588Z,65.10
2018-08-17T09:59:13.968Z,66.40
2018-08-17T10:03:22.747Z,65.10
2018-08-17T10:07:31.506Z,66.00
2018-08-17T10:11:34.854Z,66.20
2018-08-17T10:15:39.451Z,66.40
2018-08-17T10:19:42.783Z,68.20
2018-08-17T10:23:46.098Z,66.40
2018-08-17T10:27:51.574Z,67.70
2018-08-17T10:31:54.929Z,65.60
2018-08-17T10:35:58.255Z,68.90
2018-08-17T10:40:01.598Z,66.30
2018-08-17T10:44:09.057Z,66.70
2018-08-17T10:48:12.397Z,68.40
2018-08-17T10:52:15.718Z,70.70
2018-08-17T10:56:19.037Z,70.70
2018-08-17T11:00:22.649Z,67.50
2018-08-17T11:04:26.056Z,69.10
2018-08-17T11:08:29.400Z,67.90
2018-08-17T11:12:32.843Z,69.20
2018-08-17T11:16:36.197Z,67.50
2018-08-17T11:20:39.515Z,68.30
2018-08-17T11:24:42.832Z,67.60
2018-08-17T11:28:46.202Z,67.90
2018-08-17T11:32:53.238Z,68.10
2018-08-17T11:36:56.562Z,67.30
2018-08-17T11:40:59.951Z,69.70
2018-08-17T11:45:05.617Z,66.80
2018-08-17T11:49:12.880Z,66.80
2018-08-17T11:53:16.230Z,66.30
2018-08-17T11:57:19.596Z,66.00
2018-08-17T12:01:26.867Z,66.40
2018-08-17T12:05:30.219Z,67.80
2018-08-17T12:09:37.321Z,67.10
2018-08-17T12:13:40.719Z,65.50
2018-08-17T12:17:44.070Z,65.30
2018-08-17T12:21:47.463Z,65.70
2018-08-17T12:25:57.348Z,65.60
2018-08-17T12:30:07.949Z,65.60
2018-08-17T12:34:11.306Z,65.50
2018-08-17T12:38:20.604Z,65.10
2018-08-17T12:42:24.487Z,65.10
2018-08-17T12:46:27.845Z,65.30
2018-08-17T12:50:31.198Z,64.90
2018-08-17T12:54:35.220Z,64.60
2018-08-17T12:58:38.573Z,64.50
2018-08-17T13:02:41.976Z,64.20
2018-08-17T13:06:45.376Z,64.40
2018-08-17T13:10:48.728Z,64.30
2018-08-17T13:14:52.195Z,64.30
2018-08-17T13:18:55.536Z,63.90
2018-08-17T13:22:58.923Z,64.10
2018-08-17T13:27:02.266Z,63.90
2018-08-17T13:31:05.591Z,64.20
2018-08-17T13:35:08.956Z,64.10
2018-08-17T13:39:12.344Z,64.10
2018-08-17T13:43:15.695Z,63.60
2018-08-17T13:47:19.031Z,63.70
2018-08-17T13:51:22.351Z,63.70
2018-08-17T13:55:25.802Z,63.20
2018-08-17T13:59:29.066Z,63.40
2018-08-17T14:03:33.422Z,63.40
2018-08-17T14:07:43.554Z,63.40
2018-08-17T14:11:46.863Z,63.50
2018-08-17T14:15:50.291Z,63.00
2018-08-17T14:19:53.620Z,62.90
2018-08-17T14:23:56.963Z,63.20
2018-08-17T14:28:00.312Z,63.10
2018-08-17T14:32:03.659Z,62.30
2018-08-17T14:36:15.946Z,62.40
2018-08-17T14:40:19.314Z,62.70
2018-08-17T14:44:22.647Z,62.50
2018-08-17T14:48:25.998Z,62.30
2018-08-17T14:52:30.816Z,62.50
2018-08-17T14:56:35.347Z,62.90
2018-08-17T15:00:40.503Z,63.10
2018-08-17T15:04:43.868Z,63.40
2018-08-17T15:08:48.190Z,63.40
2018-08-17T15:12:58.366Z,64.00
2018-08-17T15:17:01.766Z,63.90
2018-08-17T15:21:05.571Z,63.70
2018-08-17T15:25:08.944Z,63.50
2018-08-17T15:29:12.288Z,63.50
2018-08-17T15:33:15.950Z,63.10
2018-08-17T15:37:19.508Z,63.20
2018-08-17T15:41:23.012Z,63.60
2018-08-17T15:45:26.368Z,63.40
2018-08-17T15:49:36.110Z,63.20
2018-08-17T15:53:40.348Z,63.20
2018-08-17T15:57:48.537Z,62.80
2018-08-17T16:01:53.228Z,62.90
2018-08-17T16:05:56.583Z,62.70
2018-08-17T16:09:59.928Z,62.60
2018-08-17T16:14:03.487Z,62.70
2018-08-17T16:18:06.867Z,62.30
2018-08-17T16:22:10.282Z,62.50
2018-08-17T16:26:13.647Z,62.60
2018-08-17T16:30:20.589Z,62.80
2018-08-17T16:34:24.877Z,62.70
2018-08-17T16:38:35.684Z,62.70
2018-08-17T16:42:39.045Z,63.00
2018-08-17T16:46:43.800Z,62.90
2018-08-17T16:50:47.222Z,63.00
2018-08-17T16:54:50.672Z,63.30
2018-08-17T16:58:54.008Z,63.20
2018-08-17T17:02:57.372Z,63.20
2018-08-17T17:07:00.713Z,63.10
2018-08-17T17:11:06.043Z,63.10
2018-08-17T17:15:15.149Z,63.00
2018-08-17T17:19:19.704Z,63.00
2018-08-17T17:23:23.027Z,62.80
2018-08-17T17:27:26.440Z,62.40
2018-08-17T17:31:29.810Z,62.60
2018-08-17T17:35:33.131Z,62.60
2018-08-17T17:39:36.475Z,62.70
2018-08-17T17:43:39.801Z,62.80
2018-08-17T17:47:43.127Z,62.80
2018-08-17T17:51:46.485Z,62.70
2018-08-17T17:55:50.234Z,62.70
2018-08-17T17:59:57.457Z,62.80
2018-08-17T18:04:00.808Z,62.80
2018-08-17T18:08:09.523Z,62.80
2018-08-17T18:12:15.971Z,62.80
2018-08-17T18:16:20.321Z,63.00
2018-08-17T18:20:24.641Z,63.20
2018-08-17T18:24:28.589Z,63.40
2018-08-17T18:28:38.661Z,63.40
2018-08-17T18:32:42.081Z,63.50
2018-08-17T18:36:45.425Z,64.00
2018-08-17T18:40:48.776Z,63.80
2018-08-17T18:44:52.546Z,63.40
2018-08-17T18:48:55.907Z,64.00
2018-08-17T18:52:59.255Z,63.70
2018-08-17T18:57:02.625Z,64.50
2018-08-17T19:01:07.645Z,64.50
2018-08-17T19:05:11.457Z,63.70
2018-08-17T19:09:14.832Z,64.30
2018-08-17T19:13:18.398Z,64.20
2018-08-17T19:17:28.183Z,64.50
2018-08-17T19:21:31.580Z,64.70
2018-08-17T19:25:39.926Z,64.50
2018-08-17T19:29:43.303Z,64.70
2018-08-17T19:33:46.663Z,65.60
2018-08-17T19:37:50.968Z,65.30
2018-08-17T19:41:54.672Z,65.30
2018-08-17T19:45:58.061Z,65.10
2018-08-17T19:50:01.476Z,66.00
2018-08-17T19:54:04.792Z,66.20
2018-08-17T19:58:08.232Z,65.50
2018-08-17T20:02:11.580Z,65.70
2018-08-17T20:06:18.844Z,66.60
2018-08-17T20:10:22.263Z,65.30
2018-08-17T20:14:25.637Z,66.40
2018-08-17T20:18:31.076Z,65.30
2018-08-17T20:22:34.476Z,67.30
2018-08-17T20:26:41.934Z,66.20
2018-08-17T20:30:45.896Z,67.40
2018-08-17T20:34:49.813Z,68.00
2018-08-17T20:38:53.139Z,67.20
2018-08-17T20:42:56.483Z,68.50
2018-08-17T20:46:59.824Z,67.10
2018-08-17T20:51:07.036Z,66.90
2018-08-17T20:55:11.971Z,68.10
2018-08-17T20:59:15.481Z,68.80
2018-08-17T21:03:19.942Z,66.90
2018-08-17T21:07:23.391Z,65.90
2018-08-17T21:11:26.723Z,67.70
2018-08-17T21:15:30.112Z,68.70
2018-08-17T21:19:41.599Z,68.30
2018-08-17T21:23:44.985Z,71.40
2018-08-17T21:27:48.868Z,67.00
2018-08-17T21:31:52.585Z,67.20
2018-08-17T21:35:56.091Z,68.50
2018-08-17T21:40:02.421Z,67.80
2018-08-17T21:44:07.538Z,67.10
2018-08-17T21:48:15.403Z,71.60
2018-08-17T21:52:24.066Z,69.20
2018-08-17T21:56:27.404Z,68.10
2018-08-17T22:00:32.811Z,68.10
2018-08-17T22:04:36.162Z,69.20
2018-08-17T22:08:39.702Z,66.90
2018-08-17T22:12:43.071Z,67.20
2018-08-17T22:16:46.349Z,69.30
2018-08-17T22:20:49.721Z,68.30
2018-08-17T22:24:56.167Z,67.70
2018-08-17T22:28:59.791Z,67.20
2018-08-17T22:33:03.132Z,69.10
2018-08-17T22:37:06.519Z,71.20
2018-08-17T22:41:10.260Z,70.60
2018-08-17T22:45:13.608Z,68.80
2018-08-17T22:49:16.944Z,69.90
2018-08-17T22:53:20.288Z,70.50
2018-08-17T22:57:23.752Z,68.40
2018-08-17T23:01:30.623Z,69.50
2018-08-17T23:05:37.437Z,69.80
2018-08-17T23:09:40.766Z,73.30
2018-08-17T23:13:44.082Z,71.60
2018-08-17T23:17:58.115Z,71.40
2018-08-17T23:22:01.454Z,69.50
2018-08-17T23:26:04.799Z,69.50
2018-08-17T23:30:08.139Z,68.20
2018-08-17T23:34:12.272Z,69.50
2018-08-17T23:38:18.400Z,68.60
2018-08-17T23:42:21.734Z,69.00
2018-08-17T23:46:25.059Z,71.90
2018-08-17T23:50:28.403Z,72.00
2018-08-17T23:54:31.776Z,69.60
2018-08-17T23:58:35.198Z,69.70
